avis per tempestes more information blitzortung!


avis per Pluja more information rain snow radar


Visita la nostra xarxa de llocs de meteo:

Template documentation
and downloads

And another site



Thunderstorms From: 18-09-2018 09:00 Until: 19-09-2018 20:59 warning for: Thunderstorms Level: Yellow info button
Rain From: 18-09-2018 09:00 Until: 19-09-2018 20:59 warning for: Rain Level: Yellow info button

Pagina Historial Weather Underground text

Diari Resum Juny 7, 2017 Unitats:  Mètric    Imperial   Tant
« Previous Dia
SegĂźent Dia »
Diari Setmana Mensual Anual Personalitzada
  Maxima: Minima: Media:
Temperatura: -17.8 °C -8.3 °C -6.6 °C
Punt de rosada: -17.8 °C -13 °C -10.7 °C
Humitat: Humidity % 51 % 62 %
Wind Speed: 0 km/h 0 km/h 10.6 km/h
RĂ fegues de vent: 0 km/h - -
Vent:- - SSW
Pression baro: 0 hPa 34462.7 hPa -
Precipitacions: 0 mm    
Historical Graphs
 
 
Dades de taula per Juny 7, 2017
Temps Temperatura Punt de rosada Pression baro Vent Wind Speed RĂ fegues de vent Humitat Rainfall Rate (Hourly)
-17.8 °C -17.8 °C 0 hPa Calm     Humidity % 0 mm
00:03 -7.2 °C -9.9 °C 34462.7 hPa SSE 6 km/h 6 km/h 73 % 0 mm
00:05 -8.3 °C -10.2 °C 34496.6 hPa SSW 5.1 km/h 5.1 km/h 80 % 0 mm
00:08 -7.2 °C -9.9 °C 34462.7 hPa ESE 9 km/h 9 km/h 73 % 0 mm
00:15 -8.3 °C -10.2 °C 34496.6 hPa SW 5.1 km/h 10.3 km/h 80 % 0 mm
00:25 -8.2 °C -10.1 °C 34496.6 hPa SW 2.6 km/h 5.1 km/h 81 % 0 mm
00:35 -8.2 °C -10.1 °C 34496.6 hPa SW 2.6 km/h 5.1 km/h 81 % 0 mm
00:45 -8.2 °C -10 °C 34533.8 hPa SW 2.6 km/h 7.7 km/h 81 % 0 mm
00:55 -8.2 °C -10 °C 34533.8 hPa SW 2.6 km/h 7.7 km/h 81 % 0 mm
01:05 -8.2 °C -10 °C 34533.8 hPa SW 2.6 km/h 2.6 km/h 81 % 0 mm
01:15 -8.2 °C -10 °C 34533.8 hPa SW 2.6 km/h 7.7 km/h 81 % 0 mm
01:25 -8.1 °C -9.9 °C 34533.8 hPa SW 2.6 km/h 5.1 km/h 81 % 0 mm
01:35 -8.2 °C -10.3 °C 34533.8 hPa WSW 5.1 km/h 10.3 km/h 78 % 0 mm
01:45 -8.2 °C -10.7 °C 34533.8 hPa WSW 7.7 km/h 10.3 km/h 75 % 0 mm
01:55 -8.3 °C -11.2 °C 34533.8 hPa West 2.6 km/h 7.7 km/h 71 % 0 mm
02:05 -8.2 °C -11.6 °C 34533.8 hPa WNW 5.1 km/h 10.3 km/h 68 % 0 mm
02:15 -8.1 °C -11.6 °C 34533.8 hPa WNW 7.7 km/h 12.9 km/h 67 % 0 mm
02:25 -8.2 °C -11.9 °C 34533.8 hPa West 7.7 km/h 10.3 km/h 65 % 0 mm
02:35 -8.2 °C -12.1 °C 34533.8 hPa West 5.1 km/h 7.7 km/h 64 % 0 mm
02:45 -7.9 °C -11.9 °C 34567.7 hPa West 5.1 km/h 5.1 km/h 63 % 0 mm
02:55 -7.7 °C -11.8 °C 34533.8 hPa West 5.1 km/h 10.3 km/h 62 % 0 mm
03:05 -7.8 °C -12 °C 34533.8 hPa West 2.6 km/h 12.9 km/h 61 % 0 mm
03:15 -7.7 °C -12.1 °C 34567.7 hPa West 5.1 km/h 7.7 km/h 60 % 0 mm
03:25 -7.7 °C -12.2 °C 34567.7 hPa West 7.7 km/h 10.3 km/h 59 % 0 mm
03:35 -7.6 °C -12.1 °C 34567.7 hPa West 5.1 km/h 7.7 km/h 59 % 0 mm
03:45 -7.5 °C -12.3 °C 34567.7 hPa WSW 7.7 km/h 7.7 km/h 57 % 0 mm
03:55 -7.5 °C -12.6 °C 34601.5 hPa West 12.9 km/h 12.9 km/h 55 % 0 mm
04:05 -7.6 °C -12.8 °C 34601.5 hPa West 2.6 km/h 7.7 km/h 54 % 0 mm
04:15 -7.4 °C -12.7 °C 34601.5 hPa West 2.6 km/h 5.1 km/h 54 % 0 mm
04:25 -7.4 °C -12.8 °C 34601.5 hPa WSW 5.1 km/h 5.1 km/h 53 % 0 mm
04:35 -7.4 °C -12.7 °C 34601.5 hPa Calm   5.1 km/h 54 % 0 mm
04:45 -7.4 °C -12.8 °C 34601.5 hPa WSW 2.6 km/h 5.1 km/h 53 % 0 mm
04:55 -7.2 °C -12.8 °C 34601.5 hPa WSW 5.1 km/h 7.7 km/h 52 % 0 mm
05:05 -7.2 °C -13 °C 34601.5 hPa SSW 2.6 km/h 7.7 km/h 51 % 0 mm
05:15 -7 °C -12.6 °C 34601.5 hPa Calm   2.6 km/h 52 % 0 mm
05:25 -7 °C -12.6 °C 34601.5 hPa SSW 2.6 km/h 10.3 km/h 52 % 0 mm
05:35 -6.9 °C -12.4 °C 34601.5 hPa Calm   2.6 km/h 53 % 0 mm
10:36 -6.9 °C -12.4 °C 34601.5 hPa South 6.3 km/h 6.3 km/h 53 % 0 mm
10:41 -7.1 °C -12.6 °C 34601.5 hPa WSW 9 km/h 9 km/h 53 % 0 mm
10:46 -7.2 °C -12.4 °C 34601.5 hPa WSW 6 km/h 6 km/h 54 % 0 mm
10:51 -7.2 °C -12.6 °C 34567.7 hPa SSW 6 km/h 6 km/h 53 % 0 mm
10:56 -7.2 °C -12.4 °C 34567.7 hPa SW 6 km/h 6 km/h 54 % 0 mm
11:01 -7.1 °C -12.4 °C 34567.7 hPa SW 3.7 km/h   54 % 0 mm
11:06 -7.2 °C -12.3 °C 34567.7 hPa South 6 km/h 6 km/h 55 % 0 mm
11:11 -7.3 °C -12.3 °C 34567.7 hPa SW 9 km/h 9 km/h 56 % 0 mm
11:16 -7.3 °C -12.2 °C 34567.7 hPa SW 8.5 km/h 8.5 km/h 57 % 0 mm
11:21 -7.3 °C -12.2 °C 34567.7 hPa SW 6 km/h 6 km/h 57 % 0 mm
11:26 -7.4 °C -12.1 °C 34567.7 hPa SW 9 km/h 9 km/h 58 % 0 mm
11:31 -7.5 °C -11.9 °C 34567.7 hPa SW 15 km/h 15 km/h 60 % 0 mm
11:36 -7.6 °C -11.8 °C 34601.5 hPa SW 6.8 km/h 7.6 km/h 61 % 0 mm
11:41 -7.4 °C -11.6 °C 34601.5 hPa SW 7.6 km/h 7.6 km/h 62 % 0 mm
11:46 -7.2 °C -11.3 °C 34601.5 hPa SW 9 km/h 9 km/h 62 % 0 mm
11:51 -7.1 °C -11.1 °C 34601.5 hPa SSE 5.6 km/h 5.6 km/h 63 % 0 mm
11:56 -6.9 °C -10.9 °C 34601.5 hPa South 6 km/h 6 km/h 63 % 0 mm
12:01 -6.9 °C -10.8 °C 34601.5 hPa SW 8.5 km/h 8.5 km/h 64 % 0 mm
12:06 -6.7 °C -10.7 °C 34601.5 hPa SSE 6 km/h 6 km/h 63 % 0 mm
12:11 -7.1 °C -11.1 °C 34601.5 hPa ESE 11.9 km/h 11.9 km/h 63 % 0 mm
12:16 -7.1 °C -11.1 °C 34601.5 hPa NE 10.3 km/h 10.3 km/h 63 % 0 mm
12:21 -6.8 °C -10.9 °C 34601.5 hPa NE 7.6 km/h 7.6 km/h 62 % 0 mm
12:26 -6.5 °C -10.8 °C 34601.5 hPa NNE 14.5 km/h 14.5 km/h 61 % 0 mm
12:31 -6.7 °C -11 °C 34601.5 hPa East 11.9 km/h 11.9 km/h 61 % 0 mm
12:36 -6.6 °C -10.8 °C 34567.7 hPa ESE 11.9 km/h 11.9 km/h 62 % 0 mm
12:41 -6.7 °C -10.7 °C 34567.7 hPa ESE 11.9 km/h 11.9 km/h 63 % 0 mm
12:46 -6.6 °C -10.6 °C 34567.7 hPa ESE 9.8 km/h 9.8 km/h 63 % 0 mm
12:51 -6.6 °C -10.4 °C 34601.5 hPa NE 9 km/h 9 km/h 64 % 0 mm
12:56 -6.6 °C -10.4 °C 34601.5 hPa ESE 15.6 km/h 15.6 km/h 64 % 0 mm
13:01 -6.4 °C -10.2 °C 34601.5 hPa ESE 15.3 km/h 15.3 km/h 65 % 0 mm
13:06 -6.6 °C -10.4 °C 34567.7 hPa East 25.9 km/h 25.9 km/h 65 % 0 mm
13:16 -6.4 °C -10.2 °C 34567.7 hPa SE 17.9 km/h 17.9 km/h 65 % 0 mm
13:21 -6.4 °C -10.2 °C 34567.7 hPa ENE 11.9 km/h 11.9 km/h 65 % 0 mm
13:26 -6.4 °C -10.2 °C 34567.7 hPa SSE 17.9 km/h 17.9 km/h 65 % 0 mm
13:31 -6.6 °C -10.3 °C 34567.7 hPa East 20.9 km/h 20.9 km/h 65 % 0 mm
13:36 -6.6 °C -10.4 °C 34533.8 hPa SSE 17.9 km/h 17.9 km/h 65 % 0 mm
13:41 -6.6 °C -10.2 °C 34533.8 hPa ESE 17.9 km/h 17.9 km/h 66 % 0 mm
13:47 -6.7 °C -10.3 °C 34533.8 hPa East 17.9 km/h 17.9 km/h 66 % 0 mm
13:52 -6.6 °C -10.1 °C 34533.8 hPa East 10.3 km/h 10.3 km/h 67 % 0 mm
13:57 -6.6 °C -10.2 °C 34533.8 hPa SW 9 km/h 9 km/h 66 % 0 mm
14:02 -6.3 °C -10 °C 34533.8 hPa South 9 km/h 9 km/h 66 % 0 mm
14:07 -6.1 °C -9.9 °C 34533.8 hPa ESE 10.3 km/h 10.3 km/h 65 % 0 mm
14:12 -6 °C -9.8 °C 34533.8 hPa South 6 km/h 6 km/h 65 % 0 mm
14:17 -5.6 °C -9.7 °C 34533.8 hPa ESE 20.9 km/h 20.9 km/h 63 % 0 mm
14:22 -5.4 °C -9.9 °C 34533.8 hPa SW 26.9 km/h 26.9 km/h 60 % 0 mm
14:27 -5.3 °C -9.9 °C 34533.8 hPa South 9 km/h 9 km/h 59 % 0 mm
14:32 -5 °C -9.7 °C 34533.8 hPa SW 15 km/h 15 km/h 59 % 0 mm
14:37 -4.9 °C -9.6 °C 34533.8 hPa SSW 9 km/h 9 km/h 59 % 0 mm
14:42 -4.9 °C -9.9 °C 34533.8 hPa SSW 17.9 km/h 17.9 km/h 57 % 0 mm
14:43 -4.8 °C -9.8 °C 34533.8 hPa SW 15 km/h 15 km/h 57 % 0 mm
14:48 -4.6 °C -9.8 °C 34533.8 hPa SW 20.3 km/h 20.3 km/h 56 % 0 mm
14:53 -4.8 °C -10.1 °C 34533.8 hPa WSW 17.9 km/h 17.9 km/h 55 % 0 mm
14:58 -5.1 °C -10.3 °C 34533.8 hPa SW 19.6 km/h 19.6 km/h 55 % 0 mm
15:03 -5 °C -10.3 °C 34496.6 hPa SSW 15 km/h 15 km/h 55 % 0 mm
15:08 -4.5 °C -10 °C 34496.6 hPa West 9 km/h 9 km/h 54 % 0 mm
15:13 -4.2 °C -9.9 °C 34496.6 hPa SW 15 km/h 15 km/h 53 % 0 mm
15:18 -4.1 °C -9.8 °C 34533.8 hPa South 15 km/h 15 km/h 53 % 0 mm
15:23 -4.4 °C -10.2 °C 34533.8 hPa South 6 km/h 6.3 km/h 52 % 0 mm
15:28 -4.5 °C -10.3 °C 34533.8 hPa South 20.9 km/h 20.9 km/h 52 % 0 mm
15:33 -4.4 °C -10.1 °C 34533.8 hPa SW 11.9 km/h 11.9 km/h 53 % 0 mm
15:38 -4.5 °C -10.2 °C 34533.8 hPa SW 15 km/h 15 km/h 53 % 0 mm
15:43 -4.8 °C -10.4 °C 34533.8 hPa North 9 km/h 9 km/h 53 % 0 mm
15:48 -4.8 °C -10.4 °C 34533.8 hPa South 11.9 km/h 11.9 km/h 53 % 0 mm
15:53 -4.9 °C -10.6 °C 34533.8 hPa SSE 15 km/h 15 km/h 53 % 0 mm
15:58 -4.7 °C -10.3 °C 34533.8 hPa SW 20.9 km/h 20.9 km/h 53 % 0 mm
16:03 -4.9 °C -10.5 °C 34496.6 hPa SW 17.9 km/h 17.9 km/h 53 % 0 mm
16:08 -4.6 °C -10.2 °C 34496.6 hPa WSW 20.9 km/h 20.9 km/h 53 % 0 mm
16:13 -4.6 °C -10.2 °C 34496.6 hPa SW 15 km/h 15 km/h 53 % 0 mm
16:18 -4.9 °C -10.5 °C 34533.8 hPa WSW 15 km/h 15 km/h 53 % 0 mm
16:23 -4.7 °C -10.3 °C 34533.8 hPa WSW 17.9 km/h 17.9 km/h 53 % 0 mm
16:28 -4.9 °C -10.5 °C 34533.8 hPa South 15 km/h 15 km/h 53 % 0 mm
16:33 -5.1 °C -10.6 °C 34533.8 hPa WSW 17.9 km/h 17.9 km/h 54 % 0 mm
16:38 -5.1 °C -10.6 °C 34533.8 hPa SW 20.9 km/h 20.9 km/h 54 % 0 mm
16:43 -5 °C -10.4 °C 34533.8 hPa SW 23.8 km/h 23.8 km/h 54 % 0 mm
16:48 -5.1 °C -10.4 °C 34533.8 hPa SW 9.3 km/h 9.3 km/h 55 % 0 mm
16:53 -5.2 °C -10.4 °C 34533.8 hPa SW 17.9 km/h 17.9 km/h 55 % 0 mm
16:58 -5.2 °C -10.4 °C 34533.8 hPa SSE 20.9 km/h 20.9 km/h 55 % 0 mm
17:03 -4.4 °C -9.9 °C 34533.8 hPa WNW 11.9 km/h 11.9 km/h 54 % 0 mm
17:08 -4.6 °C -10.1 °C 34533.8 hPa WSW 20.9 km/h 20.9 km/h 54 % 0 mm
17:13 -5 °C -10.4 °C 34533.8 hPa SW 23.8 km/h 23.8 km/h 54 % 0 mm
17:18 -5.2 °C -10.5 °C 34533.8 hPa WNW 17.9 km/h 17.9 km/h 55 % 0 mm
17:23 -5.3 °C -10.4 °C 34533.8 hPa SW 19.6 km/h 19.6 km/h 56 % 0 mm
17:28 -5.4 °C -10.6 °C 34533.8 hPa SSW 20.3 km/h 20.3 km/h 56 % 0 mm
17:33 -5.5 °C -10.4 °C 34533.8 hPa SW 11.9 km/h 11.9 km/h 57 % 0 mm
17:38 -5.4 °C -10.4 °C 34533.8 hPa SSW 17.9 km/h 17.9 km/h 57 % 0 mm
17:43 -5.4 °C -10.4 °C 34533.8 hPa SSW 15 km/h 15 km/h 57 % 0 mm
17:48 -5.4 °C -10.3 °C 34533.8 hPa South 15 km/h 15 km/h 57 % 0 mm
17:53 -5.4 °C -10.3 °C 34533.8 hPa South 11.9 km/h 11.9 km/h 57 % 0 mm
17:58 -5.2 °C -10.2 °C 34533.8 hPa SSW 11.9 km/h 11.9 km/h 57 % 0 mm
18:03 -5.1 °C -10.1 °C 34496.6 hPa South 23.8 km/h 23.8 km/h 57 % 0 mm
18:08 -5.2 °C -10.2 °C 34496.6 hPa SW 15 km/h 15 km/h 57 % 0 mm
18:13 -5.3 °C -10.2 °C 34496.6 hPa SSW 26.9 km/h 26.9 km/h 57 % 0 mm
18:14 -5.3 °C -10.2 °C 34496.6 hPa WSW 17.9 km/h 17.9 km/h 57 % 0 mm
18:19 -5.2 °C -10.2 °C 34496.6 hPa WSW 20.9 km/h 20.9 km/h 57 % 0 mm
18:24 -5.1 °C -10.1 °C 34496.6 hPa SSW 14 km/h 14 km/h 57 % 0 mm
18:29 -5.1 °C -10.1 °C 34496.6 hPa SSW 17.9 km/h 17.9 km/h 57 % 0 mm
18:34 -5.1 °C -10.1 °C 34496.6 hPa WSW 17.9 km/h 17.9 km/h 57 % 0 mm
18:39 -5.2 °C -10.2 °C 34496.6 hPa SW 9 km/h 9 km/h 57 % 0 mm
18:44 -5.3 °C -10.3 °C 34496.6 hPa WSW 20.9 km/h 20.9 km/h 57 % 0 mm
18:49 -5.3 °C -10.1 °C 34496.6 hPa SSW 9.8 km/h 9.8 km/h 58 % 0 mm
18:54 -5.4 °C -10.2 °C 34496.6 hPa SW 9 km/h 9.3 km/h 58 % 0 mm
18:59 -5.7 °C -10.4 °C 34496.6 hPa SSW 15 km/h 15 km/h 59 % 0 mm
19:04 -5.8 °C -10.4 °C 34496.6 hPa SW 15 km/h 15 km/h 59 % 0 mm
19:09 -6 °C -10.5 °C 34496.6 hPa SW 20.9 km/h 20.9 km/h 60 % 0 mm
19:14 -6.2 °C -10.6 °C 34496.6 hPa SSW 17.9 km/h 17.9 km/h 61 % 0 mm
19:19 -6.2 °C -10.6 °C 34496.6 hPa SW 15.6 km/h 15.6 km/h 61 % 0 mm
19:24 -6.2 °C -10.4 °C 34496.6 hPa SW 19.2 km/h 19.2 km/h 62 % 0 mm
19:29 -6.2 °C -10.4 °C 34496.6 hPa SW 11.9 km/h 11.9 km/h 62 % 0 mm
19:34 -6.2 °C -10.4 °C 34496.6 hPa SW 17.9 km/h 17.9 km/h 62 % 0 mm
19:39 -6.2 °C -10.3 °C 34496.6 hPa SW 9 km/h 9 km/h 63 % 0 mm
19:44 -6.2 °C -10.3 °C 34496.6 hPa SW 20.9 km/h 20.9 km/h 63 % 0 mm
19:49 -6.3 °C -10.3 °C 34496.6 hPa SW 11.9 km/h 11.9 km/h 63 % 0 mm
19:54 -6.3 °C -10.3 °C 34496.6 hPa SW 11.9 km/h 11.9 km/h 63 % 0 mm
19:59 -6.3 °C -10.3 °C 34496.6 hPa SW 11.9 km/h 11.9 km/h 63 % 0 mm
20:04 -6.4 °C -10.3 °C 34496.6 hPa SW 9.8 km/h 9.8 km/h 64 % 0 mm
20:05 -6.4 °C -10.3 °C 34496.6 hPa SSE 9 km/h 9 km/h 64 % 0 mm
20:10 -6.4 °C -10.4 °C 34496.6 hPa WSW 9.8 km/h 9.8 km/h 64 % 0 mm
20:15 -6.5 °C -10.4 °C 34496.6 hPa SW 15 km/h 15 km/h 64 % 0 mm
20:20 -6.5 °C -10.4 °C 34496.6 hPa SW 9 km/h 9 km/h 64 % 0 mm
20:25 -6.6 °C -10.4 °C 34496.6 hPa SSW 11.9 km/h 11.9 km/h 64 % 0 mm
20:30 -6.6 °C -10.4 °C 34496.6 hPa South 11.9 km/h 11.9 km/h 65 % 0 mm
20:35 -6.6 °C -10.4 °C 34533.8 hPa SW 15 km/h 15 km/h 65 % 0 mm
20:40 -6.7 °C -10.4 °C 34533.8 hPa WSW 9 km/h 9 km/h 65 % 0 mm
20:45 -6.7 °C -10.4 °C 34533.8 hPa SSW 6 km/h   65 % 0 mm
20:50 -6.7 °C -10.3 °C 34496.6 hPa SW 4.2 km/h   66 % 0 mm
20:55 -6.7 °C -10.4 °C 34496.6 hPa SW 9 km/h 9 km/h 65 % 0 mm
21:00 -6.7 °C -10.4 °C 34496.6 hPa SSW 9 km/h 9 km/h 66 % 0 mm
21:05 -6.8 °C -10.4 °C 34533.8 hPa SSW 11.9 km/h 11.9 km/h 66 % 0 mm
21:10 -6.9 °C -10.4 °C 34533.8 hPa WSW 15 km/h 15 km/h 67 % 0 mm
21:15 -6.9 °C -10.4 °C 34533.8 hPa SW 9 km/h 9 km/h 67 % 0 mm
21:20 -7.1 °C -10.4 °C 34533.8 hPa WSW 9 km/h 9 km/h 68 % 0 mm
21:25 -7.1 °C -10.4 °C 34533.8 hPa SW 6 km/h 6 km/h 68 % 0 mm
21:30 -7.2 °C -10.5 °C 34533.8 hPa SSW 9 km/h 9 km/h 68 % 0 mm
21:35 -7.3 °C -10.4 °C 34533.8 hPa SSW 11.9 km/h 11.9 km/h 70 % 0 mm
21:40 -7.3 °C -10.4 °C 34533.8 hPa SW 6 km/h 6 km/h 70 % 0 mm
21:45 -7.4 °C -10.5 °C 34533.8 hPa WSW 6.3 km/h 6.3 km/h 70 % 0 mm
21:50 -7.4 °C -10.4 °C 34533.8 hPa WSW 9 km/h 9 km/h 71 % 0 mm
21:55 -7.4 °C -10.4 °C 34533.8 hPa SW 6 km/h 6 km/h 71 % 0 mm
22:00 -7.5 °C -10.4 °C 34533.8 hPa SW 3.7 km/h 3.7 km/h 72 % 0 mm
22:05 -7.5 °C -10.4 °C 34533.8 hPa WSW 6 km/h 6 km/h 72 % 0 mm
22:10 -7.6 °C -10.4 °C 34533.8 hPa SW 6 km/h 6 km/h 72 % 0 mm
22:15 -7.6 °C -10.3 °C 34533.8 hPa SW 4.2 km/h   73 % 0 mm
22:20 -7.6 °C -10.3 °C 34533.8 hPa SW 6 km/h 6 km/h 73 % 0 mm
22:23 -7.6 °C -10.3 °C 34533.8 hPa SW 9 km/h 9 km/h 73 % 0 mm
22:28 -7.6 °C -10.3 °C 34533.8 hPa SW 3.1 km/h 3.1 km/h 73 % 0 mm
22:33 -7.7 °C -10.3 °C 34533.8 hPa WSW 3.1 km/h   74 % 0 mm
22:43 -7.7 °C -10.3 °C 34533.8 hPa SW 3.1 km/h   74 % 0 mm
22:48 -7.7 °C -10.3 °C 34533.8 hPa SSW 3.1 km/h 3.1 km/h 74 % 0 mm
22:53 -7.8 °C -10.4 °C 34533.8 hPa WSW 4.2 km/h 4.2 km/h 74 % 0 mm
22:58 -7.8 °C -10.3 °C 34533.8 hPa WSW 5.1 km/h 5.1 km/h 75 % 0 mm
23:03 -7.8 °C -10.3 °C 34533.8 hPa WSW 6 km/h 6 km/h 75 % 0 mm
23:08 -7.8 °C -10.3 °C 34533.8 hPa WSW 3.1 km/h 3.1 km/h 75 % 0 mm
23:13 -7.8 °C -10.3 °C 34533.8 hPa SW 6 km/h 6 km/h 75 % 0 mm
23:18 -7.8 °C -10.3 °C 34533.8 hPa West 6 km/h 6 km/h 75 % 0 mm
23:23 -7.9 °C -10.3 °C 34533.8 hPa WSW 6 km/h 6 km/h 76 % 0 mm
23:28 -7.9 °C -10.3 °C 34533.8 hPa WSW 6 km/h 6 km/h 76 % 0 mm
23:33 -7.9 °C -10.3 °C 34533.8 hPa WSW 3.1 km/h   76 % 0 mm
23:38 -7.9 °C -10.3 °C 34533.8 hPa WSW 6 km/h 6 km/h 76 % 0 mm
23:43 -7.9 °C -10.2 °C 34533.8 hPa WSW 3.1 km/h 3.1 km/h 77 % 0 mm
23:48 -8 °C -10.3 °C 34533.8 hPa SW 3.1 km/h   77 % 0 mm
23:53 -7.9 °C -10.2 °C 34533.8 hPa SW 3.1 km/h   77 % 0 mm
23:58 -7.9 °C -10.1 °C 34533.8 hPa WSW 4.2 km/h 4.2 km/h 78 % 0 mm
Meteo Sesrovires
Elogis d' Weather Underground - 1.5 mb

Guio original per  Jim McMurry - jmcmurry@mwt.net Adaptat per a la plantilla per  Wim van der Kuil - Leuven-Template.eu

Trobareu la nostra informacio del temps tambe a:

Weather Underground

AWEKAS